Time;durP1;ratioP1;P1;durP2;ratioP2;P2;SDS_P1;SDS_P2;PMS_P1;PMS_P2;Temp;Humidity;BMP_temperature;BMP_pressure;BME280_temperature;BME280_humidity;BME280_pressure;Samples;Min_cycle;Max_cycle;Signal;HPM_P1;HPM_P2
2022/04/01 00:00:08;;;;;;;;;5.00;1.00;;;;;8.56;45.35;100264.69;4965417;28;61342;-79
2022/04/01 00:02:35;;;;;;;;;3.25;1.00;;;;;8.52;45.65;100267.09;4966043;28;61297;-79
2022/04/01 00:05:01;;;;;;;;;1.50;1.00;;;;;8.57;45.47;100258.63;4967691;28;62143;-80
2022/04/01 00:07:26;;;;;;;;;1.50;1.00;;;;;8.49;45.59;100257.41;4979668;28;63644;-80
2022/04/01 00:09:53;;;;;;;;;1.00;0.50;;;;;8.56;45.98;100253.31;4965926;28;61947;-79
2022/04/01 00:12:18;;;;;;;;;2.00;1.00;;;;;8.50;46.50;100259.16;4966558;28;61870;-80
2022/04/01 00:14:44;;;;;;;;;1.00;1.00;;;;;8.42;46.13;100244.88;4967718;28;62115;-79
2022/04/01 00:17:09;;;;;;;;;4.75;1.00;;;;;8.36;46.47;100258.53;4982695;28;63639;-80
2022/04/01 00:19:35;;;;;;;;;1.00;1.00;;;;;8.26;45.69;100243.25;4968747;28;61813;-80
2022/04/01 00:22:00;;;;;;;;;4.00;1.75;;;;;8.27;45.76;100239.84;4968946;28;62161;-79
2022/04/01 00:24:26;;;;;;;;;9.50;2.00;;;;;8.33;46.58;100240.13;4969504;28;62087;-79
2022/04/01 00:26:51;;;;;;;;;2.00;1.75;;;;;8.34;46.27;100239.28;4968568;28;61731;-80
2022/04/01 00:29:17;;;;;;;;;1.50;0.00;;;;;8.12;46.72;100229.59;4969236;28;61940;-80
2022/04/01 00:31:48;;;;;;;;;4.00;0.50;;;;;8.21;46.73;100236.06;4967071;28;62414;-80
2022/04/01 00:34:17;;;;;;;;;0.00;0.00;;;;;8.06;46.74;100242.38;4967961;28;61758;-80
2022/04/01 00:36:43;;;;;;;;;0.25;0.25;;;;;7.99;47.03;100253.38;4981933;28;63709;-80
2022/04/01 00:39:09;;;;;;;;;1.75;0.00;;;;;8.22;46.52;100235.22;4967677;28;62362;-79
2022/04/01 00:41:37;;;;;;;;;0.00;0.00;;;;;8.17;46.91;100235.91;4982449;28;62189;-80
2022/04/01 00:44:15;;;;;;;;;2.00;0.25;;;;;8.22;46.95;100238.72;4968139;28;62160;-80
2022/04/01 00:46:47;;;;;;;;;5.00;1.00;;;;;8.03;46.78;100255.28;4981853;28;63460;-80
2022/04/01 00:49:13;;;;;;;;;2.50;1.00;;;;;7.89;47.38;100232.88;4967307;28;62364;-79
2022/04/01 00:51:42;;;;;;;;;0.00;0.00;;;;;8.14;46.77;100230.56;4967828;28;62174;-79
2022/04/01 00:54:08;;;;;;;;;3.50;0.00;;;;;8.26;47.09;100226.69;4968865;28;61940;-79
2022/04/01 00:56:34;;;;;;;;;0.00;0.00;;;;;8.26;46.84;100224.97;4967303;28;62778;-78
2022/04/01 00:59:01;;;;;;;;;0.25;0.25;;;;;8.29;47.23;100209.44;4967639;28;61770;-79
2022/04/01 01:01:27;;;;;;;;;1.00;0.00;;;;;8.29;46.81;100211.13;4982647;28;61813;-80
2022/04/01 01:03:53;;;;;;;;;2.00;1.00;;;;;8.35;47.02;100217.50;4968687;28;61789;-79
2022/04/01 01:06:19;;;;;;;;;2.00;0.00;;;;;8.40;46.89;100209.91;4967298;28;62724;-79
2022/04/01 01:08:45;;;;;;;;;4.00;1.25;;;;;8.35;47.22;100207.06;4967231;28;61778;-78
2022/04/01 01:11:11;;;;;;;;;0.00;0.00;;;;;8.30;47.45;100200.75;4982859;28;62178;-79
2022/04/01 01:13:37;;;;;;;;;1.00;1.00;;;;;8.27;47.59;100198.00;4967670;28;61881;-79
2022/04/01 01:16:03;;;;;;;;;1.25;1.00;;;;;8.24;48.65;100194.34;4966950;28;61758;-79
2022/04/01 01:18:29;;;;;;;;;2.00;1.00;;;;;8.19;48.26;100189.81;4968170;28;61718;-79
2022/04/01 01:20:54;;;;;;;;;4.00;1.00;;;;;8.14;48.77;100185.19;4965687;28;61773;-78
2022/04/01 01:23:27;;;;;;;;;0.00;0.00;;;;;8.24;48.96;100192.63;4967845;28;62135;-79
2022/04/01 01:25:54;;;;;;;;;0.00;0.00;;;;;8.21;48.67;100186.38;4964627;28;64651;-79
2022/04/01 01:28:21;;;;;;;;;1.25;1.25;;;;;8.17;49.09;100180.13;4966638;28;62155;-79
2022/04/01 01:30:47;;;;;;;;;3.50;0.25;;;;;7.95;49.32;100175.66;4965464;28;61860;-79
2022/04/01 01:33:14;;;;;;;;;0.25;0.25;;;;;8.01;49.29;100172.41;4966195;28;62264;-79
2022/04/01 01:35:39;;;;;;;;;0.00;0.00;;;;;8.11;49.00;100179.84;4981468;28;64502;-79
2022/04/01 01:38:05;;;;;;;;;1.00;0.00;;;;;8.04;49.79;100180.41;4966775;28;61869;-79
2022/04/01 01:40:33;;;;;;;;;1.00;1.00;;;;;8.01;49.59;100172.41;4981400;28;62248;-79
2022/04/01 01:42:58;;;;;;;;;1.25;0.00;;;;;7.85;51.29;100161.28;4967073;28;61769;-79
2022/04/01 01:45:24;;;;;;;;;0.25;0.00;;;;;8.01;51.39;100164.56;4966773;28;61511;-79
2022/04/01 01:47:50;;;;;;;;;2.00;0.00;;;;;8.04;51.23;100151.66;4966616;28;61795;-79
2022/04/01 01:55:44;;;;;;;;;0.50;0.50;;;;;7.74;51.08;100141.63;4966037;28;61699;-79
2022/04/01 01:58:10;;;;;;;;;1.00;1.00;;;;;7.87;52.50;100132.63;4966383;28;62122;-79
2022/04/01 02:00:36;;;;;;;;;0.00;0.00;;;;;7.77;53.00;100126.06;4965583;28;61989;-79
2022/04/01 02:03:03;;;;;;;;;2.00;0.00;;;;;7.55;53.31;100129.44;4966940;28;61979;-79
2022/04/01 02:05:29;;;;;;;;;4.00;2.00;;;;;7.55;54.35;100113.78;4981403;28;64839;-79
2022/04/01 02:07:56;;;;;;;;;3.25;1.00;;;;;7.61;54.35;100113.16;4966254;28;61926;-79
2022/04/01 02:10:21;;;;;;;;;1.25;1.00;;;;;7.55;54.17;100126.81;4968559;28;61901;-78
2022/04/01 02:12:47;;;;;;;;;1.00;0.75;;;;;7.65;53.08;100118.59;4971196;28;61916;-79
2022/04/01 02:15:12;;;;;;;;;2.00;1.00;;;;;7.66;53.41;100122.09;4966467;28;61718;-80
2022/04/01 02:17:40;;;;;;;;;5.00;0.00;;;;;7.75;54.12;100112.03;4966587;28;61933;-79
2022/04/01 02:20:09;;;;;;;;;1.25;1.00;;;;;7.33;55.72;100115.41;4965645;28;62227;-80
2022/04/01 02:22:36;;;;;;;;;4.75;0.75;;;;;7.27;56.55;100112.50;4964519;28;62213;-79
2022/04/01 02:25:04;;;;;;;;;1.00;1.00;;;;;7.35;57.11;100103.31;4964575;28;62527;-79
2022/04/01 02:27:30;;;;;;;;;2.75;0.00;;;;;7.27;56.75;100101.16;4964974;28;61995;-80
2022/04/01 02:29:57;;;;;;;;;1.25;1.00;;;;;7.21;57.34;100101.78;4965095;28;61813;-80
2022/04/01 02:32:23;;;;;;;;;1.00;1.00;;;;;7.41;57.05;100093.97;4963975;28;61770;-79
2022/04/01 02:34:49;;;;;;;;;2.00;0.00;;;;;7.22;57.56;100103.56;4964115;28;62727;-77
2022/04/01 02:37:16;;;;;;;;;5.00;1.00;;;;;7.16;57.98;100104.16;4964590;28;61851;-79
2022/04/01 02:39:42;;;;;;;;;1.50;0.50;;;;;7.17;58.81;100111.16;4964605;28;61752;-79
2022/04/01 02:42:08;;;;;;;;;4.50;1.75;;;;;7.32;57.95;100097.94;4964588;28;61916;-79
2022/04/01 02:44:33;;;;;;;;;4.00;1.50;;;;;7.30;58.28;100104.78;4963549;28;61931;-79
2022/04/01 02:47:01;;;;;;;;;1.50;1.50;;;;;7.08;59.68;100108.13;4979088;28;61865;-80
2022/04/01 02:49:26;;;;;;;;;6.50;0.00;;;;;7.14;59.08;100103.19;4962980;28;61976;-80
2022/04/01 02:51:53;;;;;;;;;2.00;1.00;;;;;7.07;58.69;100098.53;4964539;28;62091;-80
2022/04/01 02:54:21;;;;;;;;;0.50;0.00;;;;;6.96;60.24;100103.25;4963403;28;63383;-80
2022/04/01 02:56:47;;;;;;;;;1.25;0.00;;;;;6.86;59.99;100087.97;4963895;28;62195;-80
2022/04/01 02:59:13;;;;;;;;;1.00;1.00;;;;;6.86;60.62;100101.00;4963887;28;61786;-78
2022/04/01 03:01:40;;;;;;;;;1.00;0.00;;;;;6.85;60.52;100095.69;4963012;28;62236;-80
2022/04/01 03:04:10;;;;;;;;;3.00;1.00;;;;;6.84;61.11;100092.22;4963133;28;62195;-79
2022/04/01 03:06:41;;;;;;;;;0.25;0.25;;;;;6.88;60.75;100096.75;4963947;28;61779;-79
2022/04/01 03:09:07;;;;;;;;;1.75;1.00;;;;;6.79;61.25;100083.28;4963428;28;61927;-80
2022/04/01 03:11:41;;;;;;;;;1.00;0.50;;;;;6.95;60.29;100085.78;4962093;28;61881;-80
2022/04/01 03:14:09;;;;;;;;;1.00;0.00;;;;;6.71;61.57;100085.50;4962722;28;62292;-80
2022/04/01 03:16:41;;;;;;;;;0.00;0.00;;;;;6.55;61.71;100083.88;4963339;28;61939;-80
2022/04/01 03:19:10;;;;;;;;;0.00;0.00;;;;;6.60;62.20;100075.34;4962015;28;62001;-80
2022/04/01 03:21:41;;;;;;;;;1.25;0.25;;;;;6.75;62.31;100077.00;4963376;28;61843;-79
2022/04/01 03:24:09;;;;;;;;;1.00;1.00;;;;;6.67;62.24;100075.75;4962811;28;61804;-79
2022/04/01 03:26:36;;;;;;;;;3.50;0.75;;;;;6.78;61.84;100076.25;4963300;28;62059;-79
2022/04/01 03:29:02;;;;;;;;;1.25;1.00;;;;;6.80;61.37;100063.31;4963140;28;61763;-79
2022/04/01 03:31:28;;;;;;;;;1.25;1.00;;;;;6.78;61.82;100057.13;4963401;28;61842;-79
2022/04/01 03:33:54;;;;;;;;;0.00;0.00;;;;;6.70;62.58;100060.22;4962619;28;61696;-79
2022/04/01 03:36:20;;;;;;;;;0.00;0.00;;;;;6.66;62.38;100060.00;4977640;28;61757;-79
2022/04/01 03:38:46;;;;;;;;;1.00;1.00;;;;;6.59;62.38;100064.03;4961830;28;61930;-80
2022/04/01 03:41:15;;;;;;;;;1.00;0.00;;;;;6.65;62.50;100058.25;4977884;28;62221;-79
2022/04/01 03:43:41;;;;;;;;;0.75;0.75;;;;;6.45;62.81;100055.56;4962372;28;61982;-80
2022/04/01 03:46:11;;;;;;;;;0.50;0.50;;;;;6.79;62.06;100053.66;4964167;28;61766;-79
2022/04/01 03:48:44;;;;;;;;;1.00;1.00;;;;;6.62;62.09;100058.06;4965262;28;61938;-79
2022/04/01 03:51:15;;;;;;;;;0.00;0.00;;;;;6.66;61.85;100067.84;4982287;28;61838;-79
2022/04/01 03:53:52;;;;;;;;;1.00;1.00;;;;;6.67;62.39;100048.78;4966620;28;61771;-79
2022/04/01 03:56:23;;;;;;;;;1.00;1.00;;;;;6.83;61.75;100050.41;4966644;28;61663;-79
2022/04/01 03:58:49;;;;;;;;;0.75;0.75;;;;;6.73;62.28;100049.97;4966671;28;62079;-79
2022/04/01 04:01:15;;;;;;;;;2.00;0.25;;;;;6.75;61.99;100052.66;4966945;28;61797;-79
2022/04/01 04:03:41;;;;;;;;;1.00;1.00;;;;;6.89;61.76;100050.69;4981875;28;64861;-79
2022/04/01 04:06:11;;;;;;;;;0.25;0.25;;;;;6.90;61.67;100055.09;4967343;28;62117;-79
2022/04/01 04:08:37;;;;;;;;;1.50;0.75;;;;;6.95;60.99;100057.09;4967011;28;61923;-79
2022/04/01 04:11:04;;;;;;;;;1.00;0.00;;;;;6.81;61.79;100046.81;4981871;28;62048;-79
2022/04/01 04:13:31;;;;;;;;;0.50;0.50;;;;;6.89;61.57;100045.47;4967754;28;61978;-79
2022/04/01 04:16:15;;;;;;;;;0.00;0.00;;;;;6.92;60.92;100056.03;4969233;28;62030;-79
2022/04/01 04:18:43;;;;;;;;;1.50;1.50;;;;;7.01;60.84;100050.38;4965878;28;61994;-79
2022/04/01 04:21:10;;;;;;;;;1.00;1.00;;;;;7.00;61.03;100059.91;4965481;28;61815;-79
2022/04/01 04:23:46;;;;;;;;;2.00;1.00;;;;;7.09;61.00;100052.53;4981165;28;64611;-79
2022/04/01 04:26:23;;;;;;;;;1.00;0.00;;;;;7.14;60.58;100039.69;4965074;28;62083;-79
2022/04/01 04:28:55;;;;;;;;;1.00;1.00;;;;;7.06;60.12;100065.41;4966304;28;61981;-79
2022/04/01 04:31:28;;;;;;;;;2.00;1.25;;;;;7.06;60.39;100064.53;4966282;28;62511;-79
2022/04/01 04:33:56;;;;;;;;;1.00;0.00;;;;;7.13;59.94;100050.94;4980897;28;63685;-79
2022/04/01 04:36:30;;;;;;;;;1.00;0.00;;;;;7.09;60.20;100052.53;4965919;28;61813;-79
2022/04/01 04:38:58;;;;;;;;;1.50;0.00;;;;;7.20;59.82;100062.53;4965933;28;61834;-79
2022/04/01 04:41:24;;;;;;;;;0.00;0.00;;;;;7.10;60.44;100067.34;4966294;28;62052;-79
2022/04/01 04:43:50;;;;;;;;;0.25;0.25;;;;;7.18;59.81;100065.09;4979671;28;63555;-79
2022/04/01 04:46:17;;;;;;;;;2.00;1.00;;;;;7.10;59.13;100061.25;4964374;28;61791;-79
2022/04/01 04:48:46;;;;;;;;;1.00;1.00;;;;;7.23;59.20;100062.69;4980763;28;61990;-79
2022/04/01 04:51:12;;;;;;;;;1.00;1.00;;;;;7.06;59.51;100073.25;4966520;28;61818;-79
2022/04/01 04:53:39;;;;;;;;;0.00;0.00;;;;;7.11;59.68;100071.75;4964232;28;64561;-79
2022/04/01 04:56:07;;;;;;;;;0.75;0.75;;;;;7.24;58.92;100072.31;4966127;28;62210;-79
2022/04/01 04:58:43;;;;;;;;;1.25;1.25;;;;;7.36;58.60;100068.53;4964083;28;61860;-79
2022/04/01 05:01:56;;;;;;;;;2.00;1.00;;;;;7.23;57.45;100076.63;4965987;28;61915;-79
2022/04/01 05:04:39;;;;;;;;;3.00;1.00;;;;;7.40;57.35;100080.03;4973457;28;62094;-79
2022/04/01 05:07:05;;;;;;;;;1.75;1.00;;;;;7.36;56.57;100093.75;4965444;28;61787;-79
2022/04/01 05:09:56;;;;;;;;;1.00;1.00;;;;;7.35;57.00;100084.16;4965960;28;61936;-79
2022/04/01 05:12:39;;;;;;;;;3.25;0.25;;;;;7.43;57.34;100084.47;4965790;28;61865;-79
2022/04/01 05:15:11;;;;;;;;;1.00;1.00;;;;;7.44;56.79;100084.56;4963999;28;62723;-77
2022/04/01 05:17:59;;;;;;;;;1.00;1.00;;;;;7.32;57.04;100097.94;4964828;28;62011;-77
2022/04/01 05:20:28;;;;;;;;;0.00;0.00;;;;;7.42;57.79;100091.44;4965263;28;61694;-76
2022/04/01 05:22:54;;;;;;;;;2.00;2.00;;;;;7.40;57.96;100100.91;4964835;28;61887;-77
2022/04/01 05:25:22;;;;;;;;;1.00;0.00;;;;;7.35;57.87;100095.47;4963933;28;61801;-77
2022/04/01 05:27:53;;;;;;;;;1.00;1.00;;;;;7.45;57.40;100104.59;4964422;28;62328;-76
2022/04/01 05:30:21;;;;;;;;;1.25;1.00;;;;;7.45;57.17;100106.34;4963103;28;61972;-77
2022/04/01 05:32:57;;;;;;;;;0.00;0.00;;;;;7.50;57.08;100104.84;4964779;28;61995;-76
2022/04/01 05:35:27;;;;;;;;;1.50;1.50;;;;;7.45;57.09;100096.78;4962716;28;64789;-78
2022/04/01 05:37:54;;;;;;;;;4.50;2.00;;;;;7.40;56.52;100108.75;4963843;28;62123;-78
2022/04/01 05:40:21;;;;;;;;;5.50;1.50;;;;;7.46;57.19;100108.13;4946668;28;62052;-77
2022/04/01 05:42:48;;;;;;;;;1.50;1.50;;;;;7.46;57.34;100100.31;4964045;28;62106;-80
2022/04/01 05:45:16;;;;;;;;;2.00;2.00;;;;;7.56;57.04;100105.09;4963026;28;62545;-78
2022/04/01 05:47:44;;;;;;;;;0.75;0.75;;;;;7.53;57.18;100112.81;4963704;28;61727;-77
2022/04/01 05:50:10;;;;;;;;;1.00;1.00;;;;;7.48;57.06;100122.16;4962429;28;62068;-77
2022/04/01 05:52:37;;;;;;;;;4.00;4.00;;;;;7.60;56.56;100117.47;4963505;28;62015;-78
2022/04/01 05:55:03;;;;;;;;;4.25;2.00;;;;;7.65;56.37;100117.69;4962574;28;61792;-78
2022/04/01 05:57:28;;;;;;;;;4.25;4.25;;;;;7.54;55.93;100118.09;4965814;28;61947;-77
2022/04/01 05:59:54;;;;;;;;;4.00;4.00;;;;;7.57;56.05;100122.56;4961661;28;62437;-78
2022/04/01 06:02:25;;;;;;;;;3.50;3.50;;;;;7.53;56.20;100128.47;4962921;28;62257;-77
2022/04/01 06:05:27;;;;;;;;;4.00;4.00;;;;;7.62;56.32;100136.72;4960902;28;61903;-76
2022/04/01 06:08:06;;;;;;;;;4.50;4.50;;;;;7.60;56.51;100140.97;4945762;28;61981;-77
2022/04/01 06:10:50;;;;;;;;;2.00;2.00;;;;;7.62;56.44;100154.13;4976787;28;61993;-75
2022/04/01 06:13:24;;;;;;;;;4.50;4.00;;;;;7.57;55.97;100141.75;4965768;28;61963;-78
2022/04/01 06:16:23;;;;;;;;;6.00;3.75;;;;;7.48;56.97;100151.78;4961886;28;63807;-78
2022/04/01 06:19:03;;;;;;;;;4.00;4.00;;;;;7.52;56.48;100151.09;4963438;28;62026;-78
2022/04/01 06:21:37;;;;;;;;;5.00;4.75;;;;;7.55;57.25;100155.56;4946373;28;61905;-78
2022/04/01 06:24:10;;;;;;;;;8.00;5.50;;;;;7.51;57.19;100164.94;4944474;28;61942;-78
2022/04/01 06:26:57;;;;;;;;;6.25;6.25;;;;;7.58;56.89;100166.13;4942030;28;64098;-78
2022/04/01 06:29:43;;;;;;;;;7.75;4.25;;;;;7.57;56.56;100162.63;4967822;28;62026;-78
2022/04/01 06:32:37;;;;;;;;;8.00;6.00;;;;;7.62;57.80;100170.69;4961892;28;61906;-78
2022/04/01 06:35:18;;;;;;;;;10.00;7.00;;;;;7.57;56.87;100177.41;4941290;28;62140;-77
2022/04/01 06:38:07;;;;;;;;;4.50;4.50;;;;;7.52;57.65;100173.69;4943058;28;64035;-80
2022/04/01 06:40:48;;;;;;;;;5.50;4.25;;;;;7.69;56.61;100177.06;4959058;28;61949;-77
2022/04/01 06:43:15;;;;;;;;;4.75;4.75;;;;;7.62;57.51;100182.84;4953959;28;62166;-79
2022/04/01 06:45:43;;;;;;;;;5.25;5.25;;;;;7.65;58.01;100180.38;4952838;28;62144;-80
2022/04/01 06:48:14;;;;;;;;;6.25;4.50;;;;;7.59;57.57;100188.81;4943205;28;63333;-79
2022/04/01 06:50:41;;;;;;;;;6.25;6.25;;;;;7.73;57.55;100189.44;4926512;28;61931;-78
2022/04/01 06:53:06;;;;;;;;;6.00;4.75;;;;;7.81;56.92;100192.44;4942827;28;62211;-79
2022/04/01 06:55:32;;;;;;;;;8.25;6.25;;;;;7.86;57.56;100198.75;4924977;28;62184;-80
2022/04/01 06:57:57;;;;;;;;;7.00;7.00;;;;;7.75;57.69;100190.41;4942603;28;61779;-79
2022/04/01 07:00:23;;;;;;;;;6.25;6.25;;;;;7.77;58.13;100205.34;4942048;28;61909;-79
2022/04/01 07:02:49;;;;;;;;;6.00;6.00;;;;;7.86;57.16;100204.88;4942576;28;61842;-79
2022/04/01 07:05:15;;;;;;;;;5.75;5.75;;;;;7.89;56.92;100204.13;4943989;28;62036;-77
2022/04/01 07:07:44;;;;;;;;;6.25;6.25;;;;;7.90;57.07;100209.41;4925494;28;64955;-78
2022/04/01 07:10:13;;;;;;;;;6.50;6.00;;;;;7.91;56.83;100218.16;4943597;28;61986;-78
2022/04/01 07:12:39;;;;;;;;;8.25;5.50;;;;;7.95;56.51;100210.53;4941800;28;61919;-78
2022/04/01 07:15:08;;;;;;;;;9.00;9.00;;;;;7.87;56.82;100219.72;4925917;28;62733;-78
2022/04/01 07:17:34;;;;;;;;;7.25;7.25;;;;;7.78;57.36;100219.31;4938197;28;63859;-78
2022/04/01 07:19:59;;;;;;;;;8.00;8.00;;;;;7.96;57.62;100212.28;4924595;28;61744;-78
2022/04/01 07:22:25;;;;;;;;;10.00;8.50;;;;;7.97;56.71;100216.72;4950912;28;61999;-78
2022/04/01 07:24:50;;;;;;;;;12.50;9.00;;;;;7.92;56.88;100230.38;4945439;28;61810;-79
2022/04/01 07:27:17;;;;;;;;;7.75;7.75;;;;;7.91;56.71;100233.84;4942553;28;61880;-78
2022/04/01 07:29:42;;;;;;;;;12.50;8.50;;;;;7.96;56.84;100233.19;4942925;28;62068;-78
2022/04/01 07:34:52;;;;;;;;;10.00;9.50;;;;;7.66;58.04;100235.28;4943352;28;62144;-78
2022/04/01 07:37:22;;;;;;;;;14.25;13.25;;;;;7.78;58.37;100245.44;4957266;28;63491;-78
2022/04/01 07:39:48;;;;;;;;;9.00;8.50;;;;;7.94;57.68;100239.19;4933420;28;61797;-78
2022/04/01 07:42:13;;;;;;;;;11.50;11.00;;;;;7.91;58.27;100247.78;4960954;28;61678;-78
2022/04/01 07:44:39;;;;;;;;;10.00;7.50;;;;;7.87;57.96;100258.03;4960106;28;62107;-78
2022/04/01 07:47:09;;;;;;;;;11.25;8.25;;;;;7.90;56.94;100250.31;4960412;28;63806;-78
2022/04/01 07:49:38;;;;;;;;;12.50;12.00;;;;;7.91;56.92;100252.13;4962196;28;62017;-78
2022/04/01 07:52:04;;;;;;;;;9.00;8.50;;;;;7.95;57.22;100254.06;4960559;28;61827;-77
2022/04/01 07:54:32;;;;;;;;;8.25;7.25;;;;;7.81;57.30;100261.25;4960736;28;61798;-77
2022/04/01 07:56:58;;;;;;;;;10.25;9.00;;;;;7.83;56.57;100259.59;4961652;28;61981;-78
2022/04/01 07:59:24;;;;;;;;;8.00;6.25;;;;;7.71;57.38;100259.00;4960669;28;61837;-78
2022/04/01 08:01:49;;;;;;;;;8.00;6.25;;;;;7.76;57.29;100268.88;4962189;28;61955;-78
2022/04/01 08:04:15;;;;;;;;;8.25;8.25;;;;;7.86;57.32;100267.59;4944818;28;61844;-77
2022/04/01 08:06:40;;;;;;;;;2.00;1.00;;;;;7.88;57.01;100279.00;4944045;28;64792;-78
2022/04/01 08:09:06;;;;;;;;;13.00;11.00;;;;;7.88;57.57;100275.50;4943411;28;61810;-78
2022/04/01 08:11:31;;;;;;;;;3.50;3.50;;;;;7.92;56.97;100280.03;4960777;28;61939;-78
2022/04/01 08:13:57;;;;;;;;;8.75;8.00;;;;;8.04;56.74;100279.72;4962014;28;62009;-77
2022/04/01 08:16:23;;;;;;;;;9.00;9.00;;;;;7.99;57.22;100287.34;4961466;28;61803;-77
2022/04/01 08:18:49;;;;;;;;;9.00;7.50;;;;;8.02;56.38;100297.94;4943556;28;61734;-78
2022/04/01 08:21:17;;;;;;;;;10.75;8.00;;;;;8.10;57.36;100290.47;4955354;28;61873;-77
2022/04/01 08:23:43;;;;;;;;;11.75;10.75;;;;;8.13;57.09;100290.59;4961261;28;62037;-78
2022/04/01 08:26:10;;;;;;;;;9.25;9.25;;;;;8.19;56.41;100298.72;4961293;28;62804;-77
2022/04/01 08:28:37;;;;;;;;;10.25;9.00;;;;;8.12;55.78;100302.78;4961240;28;61841;-77
2022/04/01 08:31:03;;;;;;;;;13.00;9.75;;;;;8.19;56.69;100301.34;4944315;28;62107;-78
2022/04/01 08:33:28;;;;;;;;;8.50;8.50;;;;;8.34;56.52;100315.09;4960948;28;61939;-78
2022/04/01 08:35:54;;;;;;;;;8.00;8.00;;;;;8.51;56.24;100315.91;4946241;28;63770;-77
2022/04/01 08:38:20;;;;;;;;;8.25;6.50;;;;;8.53;55.41;100319.50;4945795;28;62007;-77
2022/04/01 08:40:48;;;;;;;;;9.75;9.00;;;;;8.57;55.10;100323.16;4965000;28;61712;-77
2022/04/01 08:43:29;;;;;;;;;8.25;7.25;;;;;8.54;55.05;100317.75;4965058;28;62027;-76
2022/04/01 08:45:57;;;;;;;;;13.75;11.75;;;;;8.44;55.35;100331.25;4977605;28;63667;-77
2022/04/01 08:48:24;;;;;;;;;14.75;10.75;;;;;8.51;55.07;100328.09;4961374;28;61760;-78
2022/04/01 08:50:50;;;;;;;;;17.50;13.50;;;;;8.44;55.09;100344.31;4945907;28;62014;-77
2022/04/01 08:53:16;;;;;;;;;16.00;13.25;;;;;8.54;54.77;100344.81;4963151;28;61833;-77
2022/04/01 08:55:46;;;;;;;;;12.25;8.50;;;;;8.48;54.24;100351.47;4962471;28;63694;-77
2022/04/01 08:58:12;;;;;;;;;13.25;11.25;;;;;8.60;54.59;100345.09;4963372;28;61793;-78
2022/04/01 09:00:38;;;;;;;;;10.25;9.25;;;;;8.62;53.84;100349.50;4962232;28;61812;-77
2022/04/01 09:03:06;;;;;;;;;8.25;8.00;;;;;8.64;54.16;100353.97;4963428;28;62097;-77
2022/04/01 09:05:32;;;;;;;;;10.50;10.00;;;;;8.66;53.76;100362.78;4964006;28;63241;-78
2022/04/01 09:08:05;;;;;;;;;8.50;5.25;;;;;8.68;54.46;100355.03;4946482;28;61913;-78
2022/04/01 09:10:48;;;;;;;;;13.00;12.00;;;;;8.78;53.73;100362.44;4962440;28;62015;-77
2022/04/01 09:13:14;;;;;;;;;11.00;8.00;;;;;8.83;53.39;100360.94;4962655;28;62161;-77
2022/04/01 09:15:42;;;;;;;;;9.25;8.25;;;;;8.88;53.53;100355.91;4961862;28;63471;-78
2022/04/01 09:18:09;;;;;;;;;14.00;12.00;;;;;8.95;53.43;100377.16;4964569;28;61817;-77
2022/04/01 09:20:50;;;;;;;;;13.50;10.50;;;;;9.07;53.07;100379.44;4963346;28;62124;-78
2022/04/01 09:23:24;;;;;;;;;13.00;10.50;;;;;9.04;52.75;100383.63;4964593;28;61995;-77
2022/04/01 09:25:52;;;;;;;;;13.25;10.50;;;;;9.06;52.89;100379.34;4961698;28;64026;-77
2022/04/01 09:28:31;;;;;;;;;11.00;10.50;;;;;9.06;52.46;100379.34;4961176;28;61693;-78
2022/04/01 09:31:10;;;;;;;;;14.75;12.25;;;;;9.17;52.91;100389.50;4960518;28;61768;-79
2022/04/01 09:33:47;;;;;;;;;14.75;12.00;;;;;9.23;52.23;100390.56;4963331;28;61948;-77
2022/04/01 09:36:33;;;;;;;;;15.00;12.50;;;;;9.30;52.33;100392.66;4962749;28;61733;-77
2022/04/01 09:39:03;;;;;;;;;13.25;12.25;;;;;9.34;52.19;100399.78;4960863;28;61991;-77
2022/04/01 09:41:33;;;;;;;;;8.75;8.75;;;;;9.28;52.21;100405.66;4978363;28;62376;-77
2022/04/01 09:44:19;;;;;;;;;15.75;11.25;;;;;9.23;52.02;100398.44;4963030;28;62067;-77
2022/04/01 09:46:46;;;;;;;;;12.00;9.00;;;;;9.20;51.82;100413.16;4952677;28;63754;-77
2022/04/01 09:49:14;;;;;;;;;14.50;9.25;;;;;9.13;52.11;100403.28;4963439;28;61872;-77
2022/04/01 09:51:43;;;;;;;;;16.50;14.50;;;;;9.20;52.72;100409.66;4963719;28;62077;-77
2022/04/01 09:54:09;;;;;;;;;12.50;10.50;;;;;9.16;51.49;100413.88;4964123;28;61733;-77
2022/04/01 09:56:39;;;;;;;;;14.25;9.25;;;;;9.23;52.67;100417.66;4963446;28;61943;-77
2022/04/01 09:59:06;;;;;;;;;12.00;12.00;;;;;9.31;52.10;100420.59;4961330;28;62298;-77
2022/04/01 10:01:37;;;;;;;;;9.25;8.25;;;;;9.49;51.67;100410.94;4963969;28;61768;-77
2022/04/01 10:04:04;;;;;;;;;10.25;10.00;;;;;9.48;50.52;100423.97;4978460;28;61764;-77
2022/04/01 10:06:32;;;;;;;;;12.75;12.75;;;;;9.42;51.60;100432.44;4963092;28;62770;-77
2022/04/01 10:09:01;;;;;;;;;14.00;11.25;;;;;9.38;51.87;100434.06;4963303;28;62001;-79
2022/04/01 10:11:27;;;;;;;;;12.00;6.00;;;;;9.37;51.69;100439.22;4978591;28;61798;-77
2022/04/01 10:13:54;;;;;;;;;14.75;12.50;;;;;9.39;51.85;100434.94;4963857;28;61821;-77
2022/04/01 10:16:21;;;;;;;;;9.75;9.75;;;;;9.54;51.45;100442.56;4963376;28;62928;-77
2022/04/01 10:18:47;;;;;;;;;15.50;11.50;;;;;9.55;51.70;100436.47;4963255;28;62152;-76
2022/04/01 10:21:17;;;;;;;;;12.00;11.25;;;;;9.45;51.46;100443.06;4978285;28;61976;-77
2022/04/01 10:23:53;;;;;;;;;10.25;8.75;;;;;9.47;50.84;100433.56;4961928;28;61915;-77
2022/04/01 10:26:21;;;;;;;;;15.00;13.25;;;;;9.51;51.43;100445.03;4960117;28;62728;-77
2022/04/01 10:28:50;;;;;;;;;17.50;12.50;;;;;9.47;51.28;100446.66;4963097;28;62043;-77
2022/04/01 10:31:16;;;;;;;;;14.00;11.75;;;;;9.41;51.14;100452.50;4960928;28;61850;-77
2022/04/01 10:33:41;;;;;;;;;16.25;10.00;;;;;9.35;51.33;100459.19;4978021;28;62249;-77
2022/04/01 10:36:22;;;;;;;;;16.00;12.75;;;;;9.33;50.50;100458.25;4962164;28;61818;-77
2022/04/01 10:38:50;;;;;;;;;15.75;12.00;;;;;9.20;50.63;100462.03;4962740;28;62046;-77
2022/04/01 10:41:18;;;;;;;;;12.25;12.00;;;;;9.26;51.15;100466.66;4962929;28;61822;-77
2022/04/01 10:43:44;;;;;;;;;15.50;12.50;;;;;9.22;51.54;100463.00;4963170;28;61770;-77
2022/04/01 10:46:14;;;;;;;;;13.75;12.75;;;;;9.20;51.52;100473.41;4962675;28;62209;-77
2022/04/01 10:52:02;;;;;;;;;12.50;10.00;;;;;9.30;51.48;100472.09;4962647;28;62053;-75
2022/04/01 10:54:28;;;;;;;;;9.25;9.25;;;;;9.20;51.01;100475.13;4960510;28;62040;-77
2022/04/01 10:56:53;;;;;;;;;13.00;13.00;;;;;9.21;51.27;100476.91;4960135;28;62733;-77
2022/04/01 10:59:23;;;;;;;;;12.75;12.25;;;;;9.24;51.29;100491.88;4960574;28;62112;-77
2022/04/01 11:01:51;;;;;;;;;13.00;13.00;;;;;9.22;51.21;100486.56;4962453;28;61792;-77
2022/04/01 11:04:16;;;;;;;;;15.25;13.25;;;;;9.18;51.49;100489.88;4962239;28;62051;-77
2022/04/01 11:07:00;;;;;;;;;20.00;13.00;;;;;9.23;51.32;100490.09;4961797;28;62558;-78
2022/04/01 11:09:46;;;;;;;;;13.00;13.00;;;;;9.19;51.48;100492.56;4976080;28;62856;-77
2022/04/01 11:12:15;;;;;;;;;17.00;12.75;;;;;9.07;51.12;100489.41;4962362;28;61904;-76
2022/04/01 11:15:11;;;;;;;;;13.00;10.75;;;;;9.07;51.59;100493.75;4961522;28;61826;-77
2022/04/01 11:17:37;;;;;;;;;12.50;11.50;;;;;9.04;51.08;100493.59;4958921;28;63937;-77
2022/04/01 11:20:32;;;;;;;;;15.75;12.50;;;;;9.08;51.67;100495.50;4962556;28;61903;-77
2022/04/01 11:22:59;;;;;;;;;12.00;11.00;;;;;9.10;51.75;100499.09;4960699;28;62113;-77
2022/04/01 11:25:25;;;;;;;;;16.75;13.00;;;;;8.95;50.75;100517.63;4961514;28;61874;-76
2022/04/01 11:28:08;;;;;;;;;16.25;13.75;;;;;8.89;51.21;100501.63;4961292;28;63221;-75
2022/04/01 11:30:40;;;;;;;;;12.00;12.00;;;;;8.91;51.80;100513.97;4961577;28;61824;-76
2022/04/01 11:33:12;;;;;;;;;17.00;14.00;;;;;9.01;51.27;100515.28;4962683;28;61913;-77
2022/04/01 11:35:41;;;;;;;;;14.00;13.25;;;;;8.91;50.80;100507.81;4962888;28;61865;-77
2022/04/01 11:38:09;;;;;;;;;12.00;12.00;;;;;9.03;51.71;100515.38;4943834;28;63402;-77
2022/04/01 11:40:37;;;;;;;;;16.00;12.25;;;;;8.99;51.71;100511.69;4961866;28;61993;-77
2022/04/01 11:43:06;;;;;;;;;12.00;12.00;;;;;8.77;51.00;100528.13;4961373;28;61921;-77
2022/04/01 11:45:44;;;;;;;;;18.75;16.00;;;;;8.91;51.74;100523.53;4960808;28;61850;-77
2022/04/01 11:48:22;;;;;;;;;13.00;12.25;;;;;8.96;52.16;100527.28;4961623;28;61789;-77
2022/04/01 11:50:54;;;;;;;;;16.25;13.00;;;;;8.95;51.75;100533.31;4960843;28;61954;-77